Time;durP1;ratioP1;P1;durP2;ratioP2;P2;SDS_P1;SDS_P2;PMS_P1;PMS_P2;Temp;Humidity;BMP_temperature;BMP_pressure;BME280_temperature;BME280_humidity;BME280_pressure;Samples;Min_cycle;Max_cycle;Signal;HPM_P1;HPM_P2
2021/11/12 00:13:44;;;;;;;23.13;15.40;;;15.60;99.90;;;;;;5109740;27;19919;-60
2021/11/12 00:16:12;;;;;;;26.08;15.98;;;15.60;99.90;;;;;;5110314;27;20077;-60
2021/11/12 00:18:40;;;;;;;26.35;15.95;;;15.60;99.90;;;;;;5098004;28;20059;-60
2021/11/12 00:21:07;;;;;;;26.95;16.08;;;15.60;99.90;;;;;;5082888;27;20126;-60
2021/11/12 00:23:38;;;;;;;26.65;15.57;;;15.60;99.90;;;;;;5118684;27;20040;-60
2021/11/12 00:26:06;;;;;;;23.73;15.07;;;15.50;99.90;;;;;;5074750;27;20067;-61
2021/11/12 00:28:46;;;;;;;21.63;13.57;;;15.50;99.90;;;;;;5105263;27;20052;-61
2021/11/12 00:37:18;;;;;;;30.40;14.18;;;15.50;99.90;;;;;;5114001;27;20104;-60
2021/11/12 00:42:12;;;;;;;19.38;13.75;;;15.60;99.90;;;;;;5105408;28;20517;-60
2021/11/12 00:44:48;;;;;;;26.70;16.17;;;15.60;99.90;;;;;;5103664;28;20039;-60
2021/11/12 00:47:33;;;;;;;;;;;15.50;99.90;;;;;;5088652;28;20052;-62
2021/11/12 00:55:11;;;;;;;26.60;16.67;;;15.50;99.90;;;;;;5102451;27;20114;-60
2021/11/12 00:57:38;;;;;;;28.38;16.65;;;15.50;99.90;;;;;;5108521;27;20036;-60
2021/11/12 01:00:08;;;;;;;23.27;15.75;;;15.40;99.90;;;;;;5107656;28;20071;-60
2021/11/12 01:02:36;;;;;;;24.83;16.15;;;15.50;99.90;;;;;;5113483;27;20036;-61
2021/11/12 01:05:05;;;;;;;23.52;14.98;;;15.50;99.90;;;;;;5124902;27;20807;-61
2021/11/12 01:07:33;;;;;;;25.48;14.57;;;15.50;99.90;;;;;;5105415;28;20063;-60
2021/11/12 01:10:01;;;;;;;21.60;13.68;;;15.50;99.90;;;;;;5124822;27;20035;-61
2021/11/12 01:12:29;;;;;;;23.67;14.60;;;15.50;99.90;;;;;;5097776;28;20035;-60
2021/11/12 01:14:57;;;;;;;27.13;14.85;;;15.50;99.90;;;;;;5093592;27;20036;-61
2021/11/12 01:17:24;;;;;;;23.08;14.70;;;15.40;99.90;;;;;;5086655;28;20067;-61
2021/11/12 01:19:52;;;;;;;20.88;14.73;;;15.50;99.90;;;;;;5105151;28;20174;-60
2021/11/12 01:22:19;;;;;;;22.48;15.02;;;15.40;99.90;;;;;;5107211;28;20039;-61
2021/11/12 01:24:48;;;;;;;27.33;14.00;;;15.40;99.90;;;;;;5108958;28;20485;-60
2021/11/12 01:27:15;;;;;;;20.88;14.15;;;15.40;99.90;;;;;;5111982;27;20439;-60
2021/11/12 01:29:43;;;;;;;21.65;12.73;;;15.40;99.90;;;;;;5119528;27;20119;-61
2021/11/12 01:32:21;;;;;;;27.27;14.38;;;15.40;99.90;;;;;;5093433;28;20055;-61
2021/11/12 01:34:52;;;;;;;35.88;20.65;;;15.40;99.90;;;;;;5109617;28;20047;-60
2021/11/12 01:37:24;;;;;;;73.47;42.72;;;15.40;99.90;;;;;;5091441;28;20035;-60
2021/11/12 01:39:56;;;;;;;95.22;51.95;;;15.40;99.90;;;;;;5084911;28;20042;-60
2021/11/12 01:42:27;;;;;;;125.28;61.70;;;15.40;99.90;;;;;;5086152;28;20051;-60
2021/11/12 01:45:00;;;;;;;81.60;46.35;;;15.40;99.90;;;;;;5099328;28;20074;-60
2021/11/12 01:50:07;;;;;;;64.53;38.30;;;15.30;99.90;;;;;;5123875;28;20052;-60
2021/11/12 01:52:46;;;;;;;56.95;33.65;;;15.30;99.90;;;;;;5107657;28;20051;-60
2021/11/12 01:55:18;;;;;;;51.83;30.58;;;15.30;99.90;;;;;;5105592;28;20040;-61
2021/11/12 02:00:24;;;;;;;47.15;26.77;;;15.30;99.90;;;;;;5123878;27;20201;-60
2021/11/12 02:02:54;;;;;;;38.80;23.15;;;15.30;99.90;;;;;;5104123;27;20052;-60
2021/11/12 02:05:22;;;;;;;31.73;21.13;;;15.30;99.90;;;;;;5125035;27;20066;-61
2021/11/12 02:07:51;;;;;;;32.25;19.90;;;15.30;99.90;;;;;;5116866;27;20151;-60
2021/11/12 02:10:22;;;;;;;31.25;20.23;;;15.30;99.90;;;;;;5109779;27;20095;-60
2021/11/12 02:13:13;;;;;;;35.13;19.08;;;15.20;99.90;;;;;;5106002;27;20059;-60
2021/11/12 02:15:42;;;;;;;24.98;16.27;;;15.30;99.90;;;;;;5117026;27;20130;-60
2021/11/12 02:18:36;;;;;;;29.13;14.05;;;15.30;99.90;;;;;;5062987;28;20117;-60
2021/11/12 02:24:04;;;;;;;16.50;11.30;;;15.20;99.90;;;;;;5107308;27;20387;-60
2021/11/12 02:26:35;;;;;;;22.33;13.30;;;15.20;99.90;;;;;;5126451;27;20046;-60
2021/11/12 02:29:05;;;;;;;26.45;13.52;;;15.20;99.90;;;;;;5119055;27;20043;-61
2021/11/12 02:31:34;;;;;;;21.80;12.30;;;15.10;99.90;;;;;;5089430;27;20071;-61
2021/11/12 02:34:09;;;;;;;17.55;11.07;;;15.10;99.90;;;;;;5097399;27;20053;-59
2021/11/12 02:36:37;;;;;;;23.95;11.77;;;15.00;99.90;;;;;;5110428;27;20100;-60
2021/11/12 02:39:11;;;;;;;20.90;12.95;;;14.90;99.90;;;;;;5079862;27;20051;-61
2021/11/12 02:41:40;;;;;;;19.98;11.70;;;14.90;99.90;;;;;;5117493;27;20035;-60
2021/11/12 02:44:08;;;;;;;20.65;13.00;;;14.80;99.90;;;;;;5119436;27;20473;-60
2021/11/12 02:46:37;;;;;;;21.85;12.52;;;14.80;99.90;;;;;;5119118;27;20500;-60
2021/11/12 02:49:05;;;;;;;21.17;13.80;;;14.70;99.90;;;;;;5119328;27;20055;-60
2021/11/12 02:51:35;;;;;;;26.70;14.63;;;14.70;99.90;;;;;;5107603;28;20055;-60
2021/11/12 02:54:05;;;;;;;19.60;13.63;;;14.70;99.90;;;;;;5115367;28;20042;-61
2021/11/12 02:56:33;;;;;;;22.38;12.80;;;14.70;99.90;;;;;;5115862;28;20482;-60
2021/11/12 02:59:09;;;;;;;21.10;13.63;;;14.60;99.90;;;;;;5103275;28;20035;-60
2021/11/12 03:01:42;;;;;;;21.25;14.95;;;14.60;99.90;;;;;;5105307;28;20097;-60
2021/11/12 03:04:11;;;;;;;24.17;15.73;;;14.60;99.90;;;;;;5107784;28;20458;-60
2021/11/12 03:06:39;;;;;;;22.00;14.77;;;14.60;99.90;;;;;;5113784;28;20482;-61
2021/11/12 03:09:11;;;;;;;20.42;12.55;;;14.60;99.90;;;;;;5112766;28;20394;-61
2021/11/12 03:11:39;;;;;;;23.42;13.27;;;14.60;99.90;;;;;;5116509;28;20084;-60
2021/11/12 03:14:08;;;;;;;23.40;13.23;;;14.60;99.90;;;;;;5116237;28;20040;-61
2021/11/12 03:16:37;;;;;;;20.52;13.82;;;14.50;99.90;;;;;;5098391;28;20051;-60
2021/11/12 03:19:08;;;;;;;21.08;13.18;;;14.50;99.90;;;;;;5113311;28;20054;-61
2021/11/12 03:21:39;;;;;;;20.95;13.93;;;14.50;99.90;;;;;;5112984;28;20436;-60
2021/11/12 03:24:28;;;;;;;20.35;12.65;;;14.40;99.90;;;;;;5096322;28;20052;-61
2021/11/12 03:27:17;;;;;;;19.95;12.40;;;14.30;99.90;;;;;;5114048;28;20035;-61
2021/11/12 04:05:19;;;;;;;14.25;9.85;;;14.00;99.90;;;;;;5114254;28;20050;-60
2021/11/12 04:21:13;;;;;;;15.05;9.07;;;14.00;99.90;;;;;;5113361;28;20101;-60
2021/11/12 05:45:46;;;;;;;8.65;5.88;;;14.40;99.90;;;;;;5093595;28;20390;-60
2021/11/12 05:56:31;;;;;;;9.87;5.87;;;14.40;99.90;;;;;;5113813;28;20054;-60
2021/11/12 05:58:59;;;;;;;12.18;6.18;;;14.50;99.90;;;;;;5095976;28;20130;-60
2021/11/12 06:01:28;;;;;;;10.00;5.68;;;14.50;99.90;;;;;;5113684;28;20046;-60
2021/11/12 06:03:56;;;;;;;10.50;6.25;;;14.60;99.90;;;;;;5079165;28;20039;-60
2021/11/12 06:06:24;;;;;;;9.73;6.35;;;14.90;99.90;;;;;;5113584;28;20139;-60
2021/11/12 06:08:52;;;;;;;9.55;5.93;;;15.30;99.90;;;;;;5095426;28;20485;-60
2021/11/12 06:11:20;;;;;;;9.57;5.43;;;15.80;99.90;;;;;;5113535;28;20075;-60
2021/11/12 06:13:48;;;;;;;6.88;5.03;;;16.30;99.90;;;;;;5079002;28;20529;-60
2021/11/12 06:16:16;;;;;;;11.45;5.97;;;16.90;99.90;;;;;;5113619;28;20040;-60
2021/11/12 06:18:43;;;;;;;9.85;5.53;;;17.50;99.90;;;;;;5113889;28;20042;-60
2021/11/12 06:21:11;;;;;;;8.63;5.28;;;18.10;99.90;;;;;;5113450;28;20063;-60
2021/11/12 06:23:40;;;;;;;9.38;6.35;;;18.60;99.90;;;;;;5095280;28;20453;-60
2021/11/12 06:26:08;;;;;;;8.30;5.05;;;19.10;99.90;;;;;;5095459;28;20047;-61
2021/11/12 06:28:36;;;;;;;11.88;5.28;;;19.50;99.90;;;;;;5095422;28;20048;-60
2021/11/12 06:31:05;;;;;;;8.07;4.55;;;19.90;99.90;;;;;;5095289;28;20154;-61
2021/11/12 06:33:32;;;;;;;9.27;5.32;;;19.90;99.90;;;;;;5095210;28;20040;-61
2021/11/12 06:36:00;;;;;;;7.07;3.80;;;19.70;99.90;;;;;;5113359;28;20135;-60
2021/11/12 06:38:30;;;;;;;11.35;6.22;;;19.40;99.90;;;;;;5113380;28;20403;-60
2021/11/12 06:41:01;;;;;;;9.00;4.68;;;19.30;99.90;;;;;;5095552;28;20051;-60
2021/11/12 06:43:31;;;;;;;8.13;4.20;;;19.80;99.90;;;;;;5114135;28;20478;-60
2021/11/12 06:49:22;;;;;;;8.32;3.88;;;21.80;99.40;;;;;;5037183;28;20049;-61
2021/11/12 06:51:51;;;;;;;15.65;5.32;;;22.70;97.60;;;;;;5037618;28;20049;-61
2021/11/12 06:54:19;;;;;;;10.95;4.90;;;23.20;96.60;;;;;;5083104;28;20090;-60
2021/11/12 06:56:47;;;;;;;9.27;4.35;;;23.50;96.00;;;;;;5081831;28;20123;-61
2021/11/12 06:59:15;;;;;;;8.75;4.82;;;23.40;95.50;;;;;;5116670;28;20035;-60
2021/11/12 07:01:47;;;;;;;6.90;4.75;;;23.20;95.80;;;;;;5116688;28;20043;-60
2021/11/12 07:04:16;;;;;;;9.77;4.13;;;23.20;96.00;;;;;;5116790;28;20047;-61
2021/11/12 07:06:43;;;;;;;8.25;3.88;;;23.20;96.00;;;;;;5098495;28;20047;-60
2021/11/12 07:09:11;;;;;;;7.35;3.78;;;23.30;96.00;;;;;;5098347;28;20051;-61
2021/11/12 07:11:39;;;;;;;9.30;4.75;;;23.30;95.70;;;;;;5116525;28;20047;-61
2021/11/12 07:14:06;;;;;;;6.20;3.70;;;23.20;95.70;;;;;;5116352;28;20401;-61
2021/11/12 07:16:34;;;;;;;9.27;4.57;;;23.20;95.70;;;;;;5081230;28;20490;-60
2021/11/12 07:19:02;;;;;;;5.68;3.55;;;23.20;96.10;;;;;;5097954;28;20040;-61
2021/11/12 07:21:30;;;;;;;10.10;3.60;;;23.10;95.90;;;;;;5098017;28;20401;-61
2021/11/12 07:24:01;;;;;;;7.60;4.25;;;23.10;95.90;;;;;;5081243;28;20043;-61
2021/11/12 07:26:30;;;;;;;5.85;3.55;;;23.20;95.90;;;;;;5115954;28;20485;-61
2021/11/12 07:28:57;;;;;;;6.45;3.67;;;23.20;95.70;;;;;;5098306;28;20485;-61
2021/11/12 07:31:41;;;;;;;4.10;2.72;;;23.20;95.40;;;;;;5098256;28;20051;-61
2021/11/12 07:34:09;;;;;;;5.57;3.28;;;23.30;95.10;;;;;;5081251;28;20039;-61
2021/11/12 07:36:44;;;;;;;5.85;3.88;;;23.20;95.20;;;;;;5097972;28;20044;-61
2021/11/12 07:47:19;;;;;;;6.10;3.35;;;23.10;94.70;;;;;;5115654;28;20555;-61
2021/11/12 07:49:58;;;;;;;6.15;3.53;;;23.00;94.50;;;;;;5115578;28;20138;-61
2021/11/12 07:52:29;;;;;;;8.98;3.72;;;22.90;94.50;;;;;;5097705;28;20123;-61
2021/11/12 07:54:59;;;;;;;7.45;3.70;;;22.70;94.80;;;;;;5097493;28;20048;-61
2021/11/12 07:57:27;;;;;;;6.03;3.53;;;22.50;94.90;;;;;;5115538;28;20046;-61
2021/11/12 07:59:55;;;;;;;4.88;3.30;;;22.40;94.80;;;;;;5115568;28;20056;-61
2021/11/12 08:02:22;;;;;;;6.88;3.40;;;22.30;94.90;;;;;;5115457;28;20202;-61
2021/11/12 08:04:56;;;;;;;5.85;3.47;;;22.20;95.10;;;;;;5097369;28;20470;-60
2021/11/12 08:07:25;;;;;;;5.90;3.40;;;22.20;95.30;;;;;;5115131;28;20089;-61
2021/11/12 08:09:57;;;;;;;5.63;3.95;;;22.10;95.50;;;;;;5097277;28;20073;-61
2021/11/12 08:12:27;;;;;;;5.72;3.97;;;22.10;95.50;;;;;;5115458;28;20154;-61
2021/11/12 08:22:55;;;;;;;6.22;3.80;;;22.20;96.20;;;;;;5115146;28;20039;-61
2021/11/12 08:25:39;;;;;;;9.30;3.95;;;22.20;96.20;;;;;;5115265;28;20454;-61
2021/11/12 08:33:32;;;;;;;7.93;3.45;;;22.00;95.80;;;;;;5096608;28;20138;-61
2021/11/12 08:41:37;;;;;;;5.78;2.72;;;21.80;95.20;;;;;;5096406;28;20560;-60
2021/11/12 08:44:14;;;;;;;6.53;3.22;;;21.90;95.30;;;;;;5114645;28;20040;-59
2021/11/12 08:46:53;;;;;;;5.20;2.97;;;22.00;94.90;;;;;;5114711;28;20036;-60
2021/11/12 08:49:31;;;;;;;3.88;2.53;;;22.10;94.30;;;;;;5114364;28;20067;-59
2021/11/12 08:52:01;;;;;;;4.00;2.40;;;22.10;93.70;;;;;;5114712;28;20040;-60
2021/11/12 08:54:32;;;;;;;5.45;2.60;;;22.20;93.40;;;;;;5096234;28;20089;-60
2021/11/12 08:56:59;;;;;;;4.25;2.70;;;22.20;93.20;;;;;;5114473;28;20406;-59
2021/11/12 08:59:27;;;;;;;3.42;2.42;;;22.20;93.00;;;;;;5114396;28;20414;-59
2021/11/12 09:01:55;;;;;;;4.30;2.53;;;22.20;92.60;;;;;;5096392;28;20130;-59
2021/11/12 09:04:23;;;;;;;3.60;2.13;;;22.20;92.20;;;;;;5114299;28;20044;-60
2021/11/12 09:06:50;;;;;;;5.00;2.38;;;22.10;91.90;;;;;;5078696;28;20469;-59
2021/11/12 09:09:18;;;;;;;5.18;2.75;;;22.10;92.30;;;;;;5096105;28;20429;-60
2021/11/12 09:11:46;;;;;;;4.93;2.72;;;22.10;92.00;;;;;;5079508;28;20378;-60
2021/11/12 09:14:18;;;;;;;6.75;3.40;;;22.30;92.00;;;;;;5096249;28;20059;-60
2021/11/12 09:16:47;;;;;;;5.03;3.70;;;22.30;91.70;;;;;;5114546;28;20047;-60
2021/11/12 09:19:15;;;;;;;5.60;2.97;;;22.30;92.20;;;;;;5114107;28;20130;-60
2021/11/12 09:21:46;;;;;;;6.25;2.70;;;22.40;92.00;;;;;;5114012;28;20504;-60
2021/11/12 09:24:14;;;;;;;6.78;3.28;;;22.40;92.30;;;;;;5114081;28;20506;-60
2021/11/12 09:26:42;;;;;;;5.80;3.08;;;22.40;91.90;;;;;;5113983;28;20039;-60
2021/11/12 09:29:11;;;;;;;6.22;3.15;;;22.30;92.00;;;;;;5095928;28;20560;-60
2021/11/12 09:31:40;;;;;;;5.10;2.75;;;22.30;92.20;;;;;;5114051;28;20055;-60
2021/11/12 09:34:10;;;;;;;5.95;3.08;;;22.40;92.20;;;;;;5114009;28;20044;-60
2021/11/12 09:36:39;;;;;;;6.15;3.63;;;22.40;92.20;;;;;;5096121;28;20424;-60
2021/11/12 09:39:07;;;;;;;7.43;3.65;;;22.40;92.30;;;;;;5113855;28;20047;-60
2021/11/12 09:41:35;;;;;;;4.50;3.38;;;22.40;92.10;;;;;;5079313;28;20051;-59
2021/11/12 09:44:04;;;;;;;6.25;2.47;;;22.50;92.30;;;;;;5095633;28;20489;-60
2021/11/12 09:46:33;;;;;;;5.00;2.20;;;22.30;91.50;;;;;;5113714;28;20042;-60
2021/11/12 09:49:03;;;;;;;4.95;2.83;;;22.30;91.20;;;;;;5078338;28;20089;-60
2021/11/12 09:51:31;;;;;;;4.45;3.10;;;22.30;91.30;;;;;;5113841;28;20050;-60
2021/11/12 09:53:59;;;;;;;5.97;3.75;;;22.20;91.30;;;;;;5113876;28;20135;-60
2021/11/12 09:56:29;;;;;;;7.15;3.00;;;22.20;91.90;;;;;;5113841;28;20040;-60
2021/11/12 09:58:56;;;;;;;6.80;4.18;;;22.20;92.30;;;;;;5094959;28;20043;-60
2021/11/12 10:01:28;;;;;;;9.43;4.32;;;22.30;92.50;;;;;;5095693;28;20131;-59
2021/11/12 10:04:03;;;;;;;10.88;3.95;;;22.30;92.20;;;;;;5113942;28;20118;-59
2021/11/12 10:06:35;;;;;;;9.82;4.30;;;22.20;92.10;;;;;;5095840;28;20043;-60
2021/11/12 10:09:11;;;;;;;10.57;4.65;;;22.30;92.50;;;;;;5113750;28;20482;-59
2021/11/12 10:11:50;;;;;;;17.17;5.38;;;22.40;92.90;;;;;;5113646;28;20118;-60
2021/11/12 10:14:29;;;;;;;8.97;4.83;;;22.40;93.00;;;;;;5113625;28;20459;-60
2021/11/12 10:16:58;;;;;;;11.88;4.75;;;22.50;92.70;;;;;;5095037;28;20051;-60
2021/11/12 10:19:26;;;;;;;8.00;4.63;;;22.50;92.80;;;;;;5117484;28;20156;-60
2021/11/12 10:22:01;;;;;;;8.70;4.75;;;22.50;92.90;;;;;;5099392;28;20048;-60
2021/11/12 10:24:34;;;;;;;8.38;4.93;;;22.50;93.10;;;;;;5099584;28;20055;-60
2021/11/12 10:27:14;;;;;;;9.30;5.15;;;22.50;93.20;;;;;;5117459;28;20040;-60
2021/11/12 10:29:49;;;;;;;7.70;4.57;;;22.50;93.10;;;;;;5099241;28;20047;-60
2021/11/12 10:32:22;;;;;;;7.35;4.53;;;22.40;93.10;;;;;;5082258;28;20092;-60
2021/11/12 10:34:53;;;;;;;6.97;4.78;;;22.40;93.40;;;;;;5117471;28;20131;-60
2021/11/12 10:37:24;;;;;;;12.38;5.93;;;22.40;93.50;;;;;;5098537;28;20062;-60
2021/11/12 10:40:02;;;;;;;8.02;6.05;;;22.40;93.50;;;;;;5099350;28;20082;-59
2021/11/12 10:42:33;;;;;;;8.57;6.07;;;22.40;93.50;;;;;;5098592;28;20071;-59
2021/11/12 10:45:08;;;;;;;10.63;6.15;;;22.30;93.70;;;;;;5117142;28;20032;-59
2021/11/12 10:47:48;;;;;;;10.40;5.72;;;22.30;93.80;;;;;;5099014;28;20505;-59
2021/11/12 10:50:17;;;;;;;11.05;5.63;;;22.20;93.70;;;;;;5064972;28;20124;-59
2021/11/12 10:52:46;;;;;;;10.73;5.38;;;22.00;93.90;;;;;;5117083;28;20127;-59
2021/11/12 10:55:17;;;;;;;8.27;4.85;;;22.00;94.10;;;;;;5116877;28;20039;-59
2021/11/12 10:57:45;;;;;;;9.25;6.40;;;21.90;94.30;;;;;;5098573;28;20071;-60
2021/11/12 11:00:45;;;;;;;9.88;5.68;;;21.80;94.40;;;;;;5116707;28;20032;-60
2021/11/12 11:03:19;;;;;;;7.60;5.65;;;21.80;94.70;;;;;;5084210;28;20043;-59
2021/11/12 11:05:52;;;;;;;10.65;5.63;;;21.90;94.80;;;;;;5098340;28;20032;-59
2021/11/12 11:08:21;;;;;;;10.20;5.85;;;21.90;94.80;;;;;;5098165;28;20087;-59
2021/11/12 11:10:55;;;;;;;8.15;5.75;;;21.70;94.50;;;;;;5116437;28;20489;-59
2021/11/12 11:13:26;;;;;;;8.27;5.60;;;21.50;94.80;;;;;;5098506;28;20105;-60
2021/11/12 11:15:55;;;;;;;9.18;5.70;;;21.30;95.00;;;;;;5098176;28;20092;-59
2021/11/12 11:18:24;;;;;;;9.30;5.65;;;21.30;95.30;;;;;;5116084;28;20044;-59
2021/11/12 11:23:48;;;;;;;10.68;6.10;;;21.10;95.50;;;;;;5098245;28;20047;-59
2021/11/12 11:26:20;;;;;;;11.20;6.25;;;21.10;95.70;;;;;;5098313;28;20047;-59
2021/11/12 11:28:51;;;;;;;9.68;6.35;;;21.20;95.50;;;;;;5115665;28;20442;-60
2021/11/12 11:31:20;;;;;;;10.52;6.35;;;21.30;95.60;;;;;;5097591;28;20047;-60
2021/11/12 11:33:51;;;;;;;12.00;6.05;;;21.50;95.60;;;;;;5081172;28;20112;-59
2021/11/12 11:36:24;;;;;;;10.50;6.95;;;21.70;95.30;;;;;;5098286;28;20039;-59
2021/11/12 11:38:53;;;;;;;11.00;6.30;;;21.90;95.20;;;;;;5098133;28;20532;-59
2021/11/12 11:41:23;;;;;;;8.98;6.00;;;21.90;95.10;;;;;;5116052;28;20396;-59
2021/11/12 11:43:51;;;;;;;9.88;6.03;;;22.00;94.90;;;;;;5115644;28;20473;-59
2021/11/12 11:46:31;;;;;;;11.35;6.75;;;21.80;94.50;;;;;;5097523;28;20067;-59
2021/11/12 11:49:09;;;;;;;13.60;6.75;;;21.80;95.00;;;;;;5097612;28;20051;-59
2021/11/12 11:51:47;;;;;;;10.27;5.47;;;21.70;95.30;;;;;;5095320;28;20058;-59
2021/11/12 11:54:14;;;;;;;9.82;6.20;;;21.50;95.70;;;;;;5095240;28;20422;-59
2021/11/12 11:56:48;;;;;;;9.90;6.88;;;21.50;95.90;;;;;;5095161;28;20040;-59
2021/11/12 11:59:44;;;;;;;11.70;6.50;;;21.30;95.90;;;;;;5077074;28;20040;-59
2021/11/12 12:02:17;;;;;;;10.13;6.70;;;21.20;96.10;;;;;;5093266;28;20076;-59
2021/11/12 12:04:59;;;;;;;10.13;6.43;;;21.10;96.10;;;;;;5095031;28;20040;-60
2021/11/12 12:07:42;;;;;;;11.82;6.35;;;21.10;96.40;;;;;;5077159;28;20055;-59
2021/11/12 12:10:27;;;;;;;12.02;6.65;;;21.10;96.70;;;;;;5076965;28;20043;-59
2021/11/12 12:12:57;;;;;;;10.18;6.63;;;21.00;96.80;;;;;;5094913;28;20085;-60
2021/11/12 12:15:25;;;;;;;16.17;7.18;;;21.00;97.10;;;;;;5076222;28;20524;-59
2021/11/12 12:18:32;;;;;;;11.05;6.47;;;21.10;97.70;;;;;;5076974;28;20395;-59
2021/11/12 12:21:53;;;;;;;10.00;6.00;;;21.10;96.90;;;;;;5012661;28;20042;-60
2021/11/12 13:26:02;;;;;;;9.80;5.75;;;19.50;99.90;;;;;;5114197;28;20038;-61
2021/11/12 13:28:40;;;;;;;19.77;6.30;;;19.50;99.90;;;;;;5095857;28;20044;-60
2021/11/12 13:31:12;;;;;;;9.57;5.55;;;19.50;99.90;;;;;;5113126;28;20497;-60
2021/11/12 13:34:00;;;;;;;11.40;6.38;;;19.50;99.90;;;;;;5112802;28;20436;-59
2021/11/12 13:36:40;;;;;;;8.95;5.30;;;19.50;99.90;;;;;;5079070;28;20097;-59
2021/11/12 13:39:19;;;;;;;11.00;5.78;;;19.40;99.90;;;;;;5113849;28;20527;-59
2021/11/12 13:41:54;;;;;;;8.85;5.90;;;19.40;99.90;;;;;;5112697;28;20066;-60
2021/11/12 13:44:25;;;;;;;9.82;6.07;;;19.40;99.90;;;;;;5112660;28;20051;-59
2021/11/12 13:47:03;;;;;;;10.25;6.03;;;19.40;99.90;;;;;;5112175;28;20048;-60
2021/11/12 13:49:47;;;;;;;10.65;5.45;;;19.40;99.90;;;;;;5112069;28;20520;-59
2021/11/12 13:52:28;;;;;;;8.25;5.75;;;19.40;99.90;;;;;;5113064;28;20047;-59
2021/11/12 13:55:03;;;;;;;11.50;5.85;;;19.40;99.90;;;;;;5116957;28;20059;-59
2021/11/12 13:57:31;;;;;;;8.65;6.00;;;19.40;99.90;;;;;;5118062;28;20079;-59
2021/11/12 14:00:04;;;;;;;9.75;4.90;;;19.30;99.90;;;;;;5116707;28;20125;-61
2021/11/12 14:03:07;;;;;;;8.48;4.95;;;19.30;99.90;;;;;;5116983;28;20058;-61
2021/11/12 14:05:36;;;;;;;;;;;19.30;99.90;;;;;;5100204;28;20593;-60
2021/11/12 14:08:04;;;;;;;10.45;5.88;;;19.30;99.90;;;;;;5116833;28;20309;-60
2021/11/12 14:10:41;;;;;;;9.02;6.00;;;19.30;99.90;;;;;;5116532;28;20120;-60
2021/11/12 14:13:11;;;;;;;8.35;5.53;;;19.30;99.90;;;;;;5116692;28;20420;-60
2021/11/12 14:15:45;;;;;;;8.05;5.25;;;19.20;99.90;;;;;;5117773;27;20394;-59
2021/11/12 14:18:41;;;;;;;12.63;5.13;;;19.30;99.90;;;;;;5116480;28;20040;-59
2021/11/12 14:49:24;;;;;;;8.43;5.82;;;18.80;99.90;;;;;;5117083;28;20040;-59
2021/11/12 14:54:45;;;;;;;10.85;6.20;;;18.80;99.90;;;;;;5115629;28;20093;-59
2021/11/12 14:57:42;;;;;;;11.48;5.22;;;18.70;99.90;;;;;;5098909;28;20381;-59
2021/11/12 15:00:15;;;;;;;9.43;6.75;;;18.70;99.90;;;;;;5116977;28;20127;-59
2021/11/12 15:02:43;;;;;;;11.63;6.70;;;18.70;99.90;;;;;;5115644;28;20044;-58
2021/11/12 15:05:12;;;;;;;9.73;5.82;;;18.60;99.90;;;;;;5115591;28;20035;-59
2021/11/12 15:07:47;;;;;;;9.68;5.95;;;18.60;99.90;;;;;;5116808;28;20122;-59
2021/11/12 15:10:18;;;;;;;10.48;6.03;;;18.60;99.90;;;;;;5116635;28;20043;-61
2021/11/12 15:12:50;;;;;;;10.63;5.68;;;18.60;99.90;;;;;;5116759;28;20043;-59
2021/11/12 15:15:19;;;;;;;8.77;5.97;;;18.60;99.90;;;;;;5115301;28;20043;-61
2021/11/12 15:17:50;;;;;;;9.88;5.28;;;18.60;99.90;;;;;;5115255;28;20032;-59
2021/11/12 15:20:18;;;;;;;15.32;7.20;;;18.50;99.90;;;;;;5116525;28;20097;-59
2021/11/12 15:30:27;;;;;;;11.02;6.88;;;18.50;99.90;;;;;;5116145;28;20427;-59
2021/11/12 15:33:01;;;;;;;17.08;9.27;;;18.60;99.90;;;;;;5116152;28;20042;-59
2021/11/12 15:35:31;;;;;;;11.73;7.43;;;18.50;99.90;;;;;;5114733;28;20468;-59
2021/11/12 15:38:21;;;;;;;19.88;10.30;;;18.50;99.90;;;;;;5116208;28;20074;-59
2021/11/12 15:44:12;;;;;;;23.83;10.60;;;18.50;99.90;;;;;;5090152;28;20124;-59
2021/11/12 15:46:44;;;;;;;27.88;13.50;;;18.40;99.90;;;;;;5115846;28;20093;-59
2021/11/12 15:49:17;;;;;;;32.30;16.48;;;18.30;99.90;;;;;;5115639;28;20039;-59
2021/11/12 15:51:52;;;;;;;30.42;13.70;;;18.30;99.90;;;;;;5097735;28;20055;-59
2021/11/12 16:13:00;;;;;;;13.93;8.90;;;18.10;99.90;;;;;;5097389;28;20423;-59
2021/11/12 16:18:26;;;;;;;19.60;10.90;;;18.10;99.90;;;;;;5115231;28;20040;-60
2021/11/12 16:26:19;;;;;;;22.90;15.52;;;17.90;99.90;;;;;;5113993;28;20119;-59
2021/11/12 16:29:14;;;;;;;23.48;14.00;;;17.80;99.90;;;;;;5114890;28;20047;-59
2021/11/12 16:31:38;;;;;;;15.43;10.32;;;17.80;99.90;;;;;;5114766;27;20100;-59
2021/11/12 16:34:18;;;;;;;23.30;13.43;;;17.90;99.90;;;;;;5114961;28;20040;-59
2021/11/12 16:36:54;;;;;;;23.15;12.93;;;17.80;99.90;;;;;;5113699;28;20105;-59
2021/11/12 16:39:38;;;;;;;;;;;17.80;99.90;;;;;;5097200;28;20128;-59
2021/11/12 16:44:58;;;;;;;27.95;12.13;;;17.80;99.90;;;;;;5113507;28;20507;-59
2021/11/12 16:50:24;;;;;;;14.52;8.02;;;17.80;99.90;;;;;;5113167;28;20147;-58
2021/11/12 16:56:09;;;;;;;;;;;17.80;99.90;;;;;;5115126;28;20059;-59
2021/11/12 16:58:32;;;;;;;14.88;9.75;;;17.80;99.90;;;;;;5096195;28;19919;-59
2021/11/12 17:01:40;;;;;;;20.05;11.23;;;17.70;99.90;;;;;;5114227;28;20054;-59
2021/11/12 17:47:32;;;;;;;16.77;9.32;;;17.20;99.90;;;;;;5121156;28;20122;-59
2021/11/12 18:06:48;;;;;;;22.70;13.57;;;16.60;99.90;;;;;;5119957;28;20074;-62
2021/11/12 21:48:13;;;;;;;27.23;14.50;;;15.80;99.90;;;;;;5083385;28;20047;-59
2021/11/12 21:50:42;;;;;;;24.83;15.50;;;15.90;99.90;;;;;;5064723;28;20059;-59
2021/11/12 21:53:10;;;;;;;23.50;13.70;;;15.80;99.90;;;;;;5092343;28;20048;-62
2021/11/12 21:55:38;;;;;;;27.38;14.38;;;15.90;99.90;;;;;;5075011;28;20080;-59
2021/11/12 21:58:06;;;;;;;22.90;15.02;;;15.90;99.90;;;;;;5111860;28;20040;-59
2021/11/12 22:00:38;;;;;;;25.23;16.17;;;15.90;99.90;;;;;;5114304;28;20046;-59
2021/11/12 22:03:05;;;;;;;23.70;14.15;;;15.90;99.90;;;;;;5129641;28;20039;-60
2021/11/12 22:05:35;;;;;;;26.42;14.63;;;15.90;99.90;;;;;;5118586;28;20042;-59
2021/11/12 22:08:03;;;;;;;24.25;12.25;;;16.00;99.90;;;;;;5118351;28;20508;-60
2021/11/12 22:10:31;;;;;;;21.48;13.10;;;16.00;99.90;;;;;;5120310;28;20054;-62
2021/11/12 22:13:02;;;;;;;20.42;11.68;;;16.00;99.90;;;;;;5123709;28;20059;-59
2021/11/12 22:15:32;;;;;;;22.88;13.23;;;16.00;99.90;;;;;;5129639;27;20144;-59
2021/11/12 22:18:00;;;;;;;20.80;11.90;;;16.00;99.90;;;;;;5119669;27;20040;-58
2021/11/12 22:20:28;;;;;;;21.70;13.80;;;16.00;99.90;;;;;;5096413;27;20048;-59
2021/11/12 22:22:55;;;;;;;22.08;12.13;;;16.10;99.90;;;;;;5099353;28;20130;-59
2021/11/12 22:25:24;;;;;;;21.13;13.50;;;16.10;99.90;;;;;;5115958;28;20055;-59
2021/11/12 22:27:51;;;;;;;19.67;12.82;;;16.10;99.90;;;;;;5123683;27;20043;-58
2021/11/12 22:30:19;;;;;;;19.80;12.18;;;16.10;99.90;;;;;;5123905;27;20039;-59
2021/11/12 22:32:47;;;;;;;17.23;11.90;;;16.20;99.90;;;;;;5119676;27;20040;-59
2021/11/12 22:35:15;;;;;;;22.10;13.27;;;16.20;99.90;;;;;;5120445;27;20043;-58
2021/11/12 22:37:43;;;;;;;21.33;12.15;;;16.20;99.90;;;;;;5110796;27;20401;-59
2021/11/12 22:40:12;;;;;;;19.50;12.27;;;16.20;99.90;;;;;;5128608;27;20035;-59
2021/11/12 22:42:41;;;;;;;18.80;11.40;;;16.30;99.90;;;;;;5125922;27;20043;-59
2021/11/12 22:45:09;;;;;;;24.30;11.13;;;16.30;99.90;;;;;;5108812;27;20053;-59
2021/11/12 22:47:37;;;;;;;18.65;11.43;;;16.30;99.90;;;;;;5120810;27;20047;-59
2021/11/12 22:50:06;;;;;;;19.55;12.45;;;16.30;99.90;;;;;;5109787;27;20413;-59
2021/11/12 22:52:33;;;;;;;18.88;12.02;;;16.30;99.90;;;;;;5089142;28;20040;-59
2021/11/12 22:55:01;;;;;;;17.38;10.15;;;16.30;99.90;;;;;;5085454;28;20040;-59
2021/11/12 22:57:29;;;;;;;15.13;8.90;;;16.30;99.90;;;;;;5083934;28;20036;-59
2021/11/12 22:59:56;;;;;;;18.10;10.68;;;16.40;99.90;;;;;;5082320;28;20044;-59
2021/11/12 23:02:25;;;;;;;18.23;9.57;;;16.30;99.90;;;;;;5091917;28;20498;-59
2021/11/12 23:04:53;;;;;;;14.75;9.38;;;16.30;99.90;;;;;;5066227;28;20048;-59
2021/11/12 23:07:20;;;;;;;16.85;10.23;;;16.30;99.90;;;;;;5088616;28;20099;-59
2021/11/12 23:09:48;;;;;;;16.25;8.93;;;16.30;99.90;;;;;;5086480;28;20106;-60
2021/11/12 23:12:16;;;;;;;13.70;8.30;;;16.30;99.90;;;;;;5074955;28;20155;-60
2021/11/12 23:14:43;;;;;;;14.48;8.65;;;16.30;99.90;;;;;;5085284;28;20044;-59
2021/11/12 23:17:11;;;;;;;12.02;7.28;;;16.30;99.90;;;;;;5085756;28;20116;-60
2021/11/12 23:19:39;;;;;;;15.02;9.30;;;16.30;99.90;;;;;;5093579;28;20040;-60
2021/11/12 23:22:06;;;;;;;13.85;8.73;;;16.40;99.90;;;;;;5094829;28;20064;-60
2021/11/12 23:24:34;;;;;;;16.73;9.57;;;16.40;99.90;;;;;;5076243;28;20074;-59
2021/11/12 23:27:02;;;;;;;13.05;7.85;;;16.40;99.90;;;;;;5075217;28;20115;-59